Sommer S — WDG3830 — position and weather

sailwx.info

Track history (hours):
 
Tides and Currents Weather Stations Pressure Air Temp Water Temp Dewpoint Dewpoint Depression Visibility Wind Speed Wind Dir Waves Ship Positions

Sommer S

Owner: Shaver Transportation Company, Portland, OR. More information available from US FCC via Universal Licensing System and Coast Guard Vessel Documentation Center.

Last reported at 2017-Feb-20 08:34 UTC. Time now 2017-Feb-20 08:47 UTC.
Position N 46°06' W 122°57'.

Length 25 m; draft 16.5 m.

Type: Tug. MMSI: 367530080.

Date/timePositionNaut miles runAvg speedWind from/ knotsBaromVisibWave heightAir tempDewpointWater temp
2017-Feb-20 08:34N 46°06' W 122°57'0 0.4
2017-Feb-20 07:33N 46°06' W 122°56'1 0.5
2017-Feb-20 06:34N 46°05' W 122°56'2 1.6
2017-Feb-20 05:34N 46°05' W 122°54'3 3.2
2017-Feb-20 04:34N 46°02' W 122°52'0 0.0
2017-Feb-20 03:33N 46°02' W 122°52'0 0.0
2017-Feb-20 02:33N 46°02' W 122°52'0 0.0
2017-Feb-20 01:34N 46°02' W 122°52'0 0.0
2017-Feb-20 00:34N 46°02' W 122°52'0 0.0
2017-Feb-19 23:34N 46°02' W 122°52'0 0.0
2017-Feb-19 22:34N 46°02' W 122°52'0 0.0
2017-Feb-19 21:34N 46°02' W 122°52'0 0.0
2017-Feb-19 20:33N 46°02' W 122°52'0 0.2
2017-Feb-19 19:34N 46°02' W 122°52'0 0.2
2017-Feb-19 18:33N 46°02' W 122°52'0 0.0
2017-Feb-19 17:34N 46°02' W 122°52'0 0.0
2017-Feb-19 16:33N 46°02' W 122°52'2 1.5
2017-Feb-19 15:34N 46°03' W 122°53'5 4.6
2017-Feb-19 14:33N 46°06' W 122°58'1 0.9
2017-Feb-19 13:34N 46°07' W 122°59'3 2.5
2017-Feb-19 12:34N 46°05' W 122°56'0 0.0
2017-Feb-19 11:34N 46°05' W 122°56'0 0.0
2017-Feb-19 10:34N 46°05' W 122°56'0 0.0
2017-Feb-19 09:34N 46°05' W 122°56'3 2.7
2017-Feb-19 08:34N 46°04' W 122°53'0 0.1
2017-Feb-19 07:34N 46°04' W 122°53'0 0.0
2017-Feb-19 06:33N 46°04' W 122°53'0 0.0
2017-Feb-19 05:34N 46°04' W 122°53'0 0.0
2017-Feb-19 04:34N 46°04' W 122°53'0 0.0
2017-Feb-19 03:34N 46°04' W 122°53'0 0.0
2017-Feb-19 02:33N 46°04' W 122°53'0 0.0
2017-Feb-19 01:33N 46°04' W 122°53'0 0.0
2017-Feb-19 00:33N 46°04' W 122°53'0 0.1
2017-Feb-18 23:34N 46°03' W 122°53'2 1.9
2017-Feb-18 22:33N 46°02' W 122°52'0 0.4
2017-Feb-18 21:34N 46°01' W 122°52'1110.9
2017-Feb-18 20:33N 45°51' W 122°47'1111.1
2017-Feb-18 19:34N 45°40' W 122°46'2 1.6
2017-Feb-18 18:34N 45°39' W 122°45'0 0.0
2017-Feb-18 17:33N 45°39' W 122°45'0 0.0
2017-Feb-18 16:33N 45°39' W 122°45'0 0.0
2017-Feb-18 15:33N 45°39' W 122°45'0 0.0
2017-Feb-18 14:33N 45°39' W 122°45'0 0.0
2017-Feb-18 13:33N 45°39' W 122°45'0 0.0
2017-Feb-18 12:33N 45°39' W 122°45'0 0.0
2017-Feb-18 11:33N 45°39' W 122°45'0 0.0
2017-Feb-18 10:33N 45°39' W 122°45'0 0.0
2017-Feb-18 09:33N 45°39' W 122°45'0 0.0
2017-Feb-18 08:33N 45°39' W 122°45'0 0.0
2017-Feb-18 07:33N 45°39' W 122°45'0 0.0
2017-Feb-18 06:33N 45°39' W 122°45'0 0.0
2017-Feb-18 05:33N 45°39' W 122°45'2 1.6
2017-Feb-18 04:33N 45°38' W 122°42'2 1.9
2017-Feb-18 03:33N 45°39' W 122°45'3 2.6
2017-Feb-18 02:33N 45°38' W 122°42'2 1.5
2017-Feb-18 01:33N 45°38' W 122°44'0 0.0
2017-Feb-18 00:33N 45°38' W 122°44'0 0.0
2017-Feb-17 23:33N 45°38' W 122°44'0 0.0
2017-Feb-17 22:33N 45°38' W 122°44'1 0.6
2017-Feb-17 21:33N 45°38' W 122°43'2 1.6
2017-Feb-17 20:33N 45°39' W 122°45'0 0.0
2017-Feb-17 19:33N 45°39' W 122°45'0 0.0
2017-Feb-17 18:34N 45°39' W 122°45'0 0.0
2017-Feb-17 17:33N 45°39' W 122°45'0 0.0
2017-Feb-17 16:33N 45°39' W 122°45'0 0.0
2017-Feb-17 15:33N 45°39' W 122°45'0 0.0
2017-Feb-17 14:33N 45°39' W 122°45'0 0.3
2017-Feb-17 13:33N 45°39' W 122°45'0 0.0
2017-Feb-17 12:33N 45°39' W 122°45'0 0.0
2017-Feb-17 11:33N 45°39' W 122°45'0 0.0
2017-Feb-17 10:33N 45°39' W 122°45'0 0.0
2017-Feb-17 09:33N 45°39' W 122°45'0 0.1
2017-Feb-17 08:33N 45°39' W 122°45'1 1.3
2017-Feb-17 07:33N 45°38' W 122°43'0 0.1
2017-Feb-17 06:34N 45°38' W 122°43'0 0.0
2017-Feb-17 05:33N 45°38' W 122°43'3 3.0
2017-Feb-17 04:33N 45°38' W 122°47'2 2.4
2017-Feb-17 03:33N 45°36' W 122°46'4 4.4
2017-Feb-17 02:33N 45°40' W 122°46'9 9.2
2017-Feb-17 01:33N 45°49' W 122°48'9 8.9
2017-Feb-17 00:33N 45°58' W 122°49'9 8.9
2017-Feb-16 23:33N 46°06' W 122°56'0 0.4
2017-Feb-16 22:33N 46°06' W 122°56'0 0.0
2017-Feb-16 21:33N 46°06' W 122°56'0 0.1
2017-Feb-16 20:33N 46°06' W 122°56'0 0.0
2017-Feb-16 19:33N 46°06' W 122°56'0 0.0
2017-Feb-16 18:33N 46°06' W 122°56'4 4.2
2017-Feb-16 17:34N 46°03' W 122°53'1 0.9
2017-Feb-16 16:34N 46°02' W 122°53'0 0.0
2017-Feb-16 15:34N 46°02' W 122°53'0 0.0
2017-Feb-16 14:34N 46°02' W 122°53'0 0.0
2017-Feb-16 13:33N 46°02' W 122°53'0 0.0
2017-Feb-16 12:34N 46°02' W 122°53'0 0.0
2017-Feb-16 11:34N 46°02' W 122°53'0 0.0
2017-Feb-16 10:33N 46°02' W 122°53'0 0.0
2017-Feb-16 09:34N 46°02' W 122°53'0 0.0
2017-Feb-16 08:33N 46°02' W 122°53'0 0.0
2017-Feb-16 07:32N 46°02' W 122°53'0 0.0
2017-Feb-16 06:34N 46°02' W 122°53'0 0.0
2017-Feb-16 05:34N 46°02' W 122°53'0 0.0
2017-Feb-16 04:33N 46°02' W 122°53'0 0.0
2017-Feb-16 03:34N 46°02' W 122°53'0 0.0
2017-Feb-16 02:34N 46°02' W 122°53'0 0.0
2017-Feb-16 01:34N 46°02' W 122°53'0 0.0
2017-Feb-16 00:33N 46°02' W 122°53'0 0.0
2017-Feb-15 23:34N 46°02' W 122°53'0 0.0
2017-Feb-15 22:33N 46°02' W 122°53'0 0.0
2017-Feb-15 21:34N 46°02' W 122°53'0 0.0
2017-Feb-15 20:33N 46°02' W 122°53'0 0.0
2017-Feb-15 19:34N 46°02' W 122°53'0 0.0
2017-Feb-15 18:34N 46°02' W 122°53'0 0.0
2017-Feb-15 17:34N 46°02' W 122°53'0 0.0
2017-Feb-15 16:34N 46°02' W 122°53'0 0.0
2017-Feb-15 15:34N 46°02' W 122°53'0 0.0
2017-Feb-15 14:34N 46°02' W 122°53'0 0.3
2017-Feb-15 13:34N 46°02' W 122°52'0 0.0
2017-Feb-15 12:34N 46°02' W 122°52'0 0.2
2017-Feb-15 11:33N 46°02' W 122°53'0 0.4
2017-Feb-15 10:34N 46°01' W 122°52'7 7.3
2017-Feb-15 09:33N 45°55' W 122°49'1313.1
2017-Feb-15 08:34N 45°42' W 122°46'3 3.1
2017-Feb-15 07:33N 45°39' W 122°45'0 0.0
2017-Feb-15 06:34N 45°39' W 122°45'0 0.0
2017-Feb-15 05:33N 45°39' W 122°45'0 0.0
2017-Feb-15 04:33N 45°39' W 122°45'1 1.2
2017-Feb-15 03:34N 45°38' W 122°43'2 1.8
2017-Feb-15 02:34N 45°39' W 122°45'2 1.6
2017-Feb-15 01:33N 45°41' W 122°47'6 6.3
2017-Feb-15 00:33N 45°47' W 122°47'9 9.0
2017-Feb-14 23:33N 45°56' W 122°48'7 6.5
2017-Feb-14 22:34N 46°02' W 122°53'0 0.0
2017-Feb-14 21:33N 46°02' W 122°53'0 0.0
2017-Feb-14 20:34N 46°02' W 122°53'0 0.0
2017-Feb-14 19:34N 46°02' W 122°53'1 0.8
2017-Feb-14 18:34N 46°02' W 122°53'4 4.4
2017-Feb-14 17:34N 46°06' W 122°57'0 0.0
2017-Feb-14 16:33N 46°06' W 122°57'0 0.1
2017-Feb-14 15:34N 46°06' W 122°57'0 0.2
2017-Feb-14 14:34N 46°06' W 122°57'0 0.3
2017-Feb-14 13:34N 46°06' W 122°56'0 0.0
2017-Feb-14 12:33N 46°06' W 122°56'1 0.7
2017-Feb-14 11:34N 46°05' W 122°56'1212.1
2017-Feb-14 10:34N 45°55' W 122°49'1313.2
2017-Feb-14 09:34N 45°41' W 122°46'3 3.0
2017-Feb-14 08:33N 45°39' W 122°45'0 0.0
2017-Feb-14 07:33N 45°39' W 122°45'0 0.0
2017-Feb-14 06:33N 45°39' W 122°45'0 0.0
2017-Feb-14 05:33N 45°39' W 122°45'0 0.0
2017-Feb-14 04:33N 45°39' W 122°45'2 1.9
2017-Feb-14 03:34N 45°38' W 122°42'1 1.1
2017-Feb-14 02:33N 45°38' W 122°44'1 1.3
2017-Feb-14 01:34N 45°39' W 122°45'1 1.0
2017-Feb-14 00:34N 45°40' W 122°46'6 6.1
2017-Feb-13 23:34N 45°34' W 122°44'0 0.2
2017-Feb-13 22:33N 45°34' W 122°44'0 0.0
2017-Feb-13 21:33N 45°34' W 122°44'0 0.0
2017-Feb-13 20:34N 45°34' W 122°44'0 0.0
2017-Feb-13 19:34N 45°34' W 122°44'0 0.0
2017-Feb-13 18:34N 45°34' W 122°44'0 0.0
2017-Feb-13 17:33N 45°34' W 122°44'2 1.8
2017-Feb-13 16:33N 45°33' W 122°41'0 0.1
2017-Feb-13 15:34N 45°33' W 122°41'2 2.0
2017-Feb-13 14:34N 45°34' W 122°44'6 5.8
2017-Feb-13 13:34N 45°39' W 122°46'3 3.2
2017-Feb-13 12:33N 45°38' W 122°42'0 0.1
2017-Feb-13 11:33N 45°38' W 122°42'0 0.0
2017-Feb-13 10:34N 45°38' W 122°42'0 0.0
2017-Feb-13 09:33N 45°38' W 122°42'0 0.0
2017-Feb-13 08:34N 45°38' W 122°42'0 0.0
2017-Feb-13 07:34N 45°38' W 122°42'2 1.7
2017-Feb-13 06:33N 45°39' W 122°44'5 5.5
2017-Feb-13 05:34N 45°33' W 122°43'2 1.8
2017-Feb-13 04:33N 45°32' W 122°41'3 3.1
2017-Feb-13 03:33N 45°34' W 122°44'1 0.5
2017-Feb-13 02:34N 45°34' W 122°44'0 0.0
2017-Feb-13 01:34N 45°34' W 122°44'4 4.3
2017-Feb-13 00:34N 45°37' W 122°47'3 3.0
2017-Feb-12 23:33N 45°38' W 122°43'0 0.2
2017-Feb-12 22:34N 45°38' W 122°43'1 1.3
2017-Feb-12 21:34N 45°39' W 122°45'0 0.0
2017-Feb-12 20:34N 45°39' W 122°45'1 0.5
2017-Feb-12 19:34N 45°39' W 122°44'1 0.8
2017-Feb-12 18:34N 45°39' W 122°43'1 1.3
2017-Feb-12 17:34N 45°39' W 122°45'0 0.0
2017-Feb-12 16:33N 45°39' W 122°45'0 0.0
2017-Feb-12 15:33N 45°39' W 122°45'8 7.6
2017-Feb-12 14:34N 45°46' W 122°46'9 9.2
2017-Feb-12 13:33N 45°55' W 122°48'4 3.8
2017-Feb-12 12:33N 45°59' W 122°50'4 4.0
2017-Feb-12 11:33N 45°55' W 122°48'1313.4
2017-Feb-12 10:34N 45°42' W 122°46'2 1.7
2017-Feb-12 09:34N 45°40' W 122°46'2 1.6
2017-Feb-12 08:34N 45°39' W 122°45'0 0.0
2017-Feb-12 07:33N 45°39' W 122°45'1 0.7
2017-Feb-12 06:33N 45°39' W 122°46'1 1.1
2017-Feb-12 05:33N 45°39' W 122°44'0 0.3
2017-Feb-12 04:33N 45°39' W 122°45'0 0.0
2017-Feb-12 03:33N 45°39' W 122°45'2 2.2
2017-Feb-12 02:33N 45°38' W 122°42'2 1.8
2017-Feb-12 01:34N 45°39' W 122°44'1 1.0
2017-Feb-12 00:33N 45°39' W 122°45'1 1.3
2017-Feb-11 23:34N 45°38' W 122°44'1 0.9
2017-Feb-11 22:33N 45°39' W 122°45'0 0.0
2017-Feb-11 21:34N 45°39' W 122°45'0 0.0
2017-Feb-11 20:34N 45°39' W 122°45'0 0.0
2017-Feb-11 19:34N 45°39' W 122°45'1 0.5
2017-Feb-11 18:34N 45°39' W 122°46'0 0.2
2017-Feb-11 17:33N 45°39' W 122°45'0 0.0
2017-Feb-11 16:33N 45°39' W 122°45'0 0.1
2017-Feb-11 15:34N 45°39' W 122°46'3 2.8
2017-Feb-11 14:33N 45°36' W 122°47'0 0.2
2017-Feb-11 13:33N 45°36' W 122°47'3 3.0
2017-Feb-11 12:33N 45°39' W 122°45'0 0.3
2017-Feb-11 11:34N 45°39' W 122°45'0 0.0
2017-Feb-11 10:34N 45°39' W 122°45'3 3.3
2017-Feb-11 09:34N 45°36' W 122°47'2 1.5
2017-Feb-11 08:33N 45°35' W 122°45'1 0.7
2017-Feb-11 07:33N 45°34' W 122°44'2 2.2
2017-Feb-11 06:33N 45°36' W 122°46'4 3.6
2017-Feb-11 05:34N 45°39' W 122°46'0 0.0
2017-Feb-11 04:34N 45°39' W 122°46'0 0.0
2017-Feb-11 03:33N 45°39' W 122°46'0 0.0
2017-Feb-11 02:33N 45°39' W 122°46'0 0.0
2017-Feb-11 01:33N 45°39' W 122°46'0 0.0
2017-Feb-11 00:33N 45°39' W 122°46'0 0.0
2017-Feb-10 23:33N 45°39' W 122°46'0 0.0
2017-Feb-10 22:33N 45°39' W 122°46'0 0.0
2017-Feb-10 21:33N 45°39' W 122°46'0 0.0
2017-Feb-10 20:33N 45°39' W 122°46'0 0.0
2017-Feb-10 19:33N 45°39' W 122°46'0 0.0
2017-Feb-10 18:33N 45°39' W 122°46'0 0.0
2017-Feb-10 17:33N 45°39' W 122°46'2 2.2
2017-Feb-10 16:34N 45°37' W 122°47'4 4.0
2017-Feb-10 15:33N 45°34' W 122°44'3 2.6
2017-Feb-10 14:34N 45°36' W 122°47'3 3.0
2017-Feb-10 13:33N 45°39' W 122°45'0 0.0
2017-Feb-10 12:34N 45°39' W 122°45'0 0.0
2017-Feb-10 11:33N 45°39' W 122°45'0 0.0
2017-Feb-10 10:33N 45°39' W 122°45'0 0.0
2017-Feb-10 09:33N 45°39' W 122°45'0 0.0
2017-Feb-10 08:34N 45°39' W 122°45'  
Track history (hours):
 
Tides and Currents Weather Stations Pressure Air Temp Water Temp Dewpoint Dewpoint Depression Visibility Wind Speed Wind Dir Waves Ship Positions

Sommer S

Owner: Shaver Transportation Company, Portland, OR. More information available from US FCC via Universal Licensing System and Coast Guard Vessel Documentation Center.

Last reported at 2017-Feb-20 08:34 UTC. Time now 2017-Feb-20 08:47 UTC.
Position N 46°06' W 122°57'.

Length 25 m; draft 16.5 m.

Type: Tug. MMSI: 367530080.

Date/timePositionNaut miles runAvg speedWind from/ knotsBaromVisibWave heightAir tempDewpointWater temp
2017-Feb-20 08:34N 46°06' W 122°57'0 0.4
2017-Feb-20 07:33N 46°06' W 122°56'1 0.5
2017-Feb-20 06:34N 46°05' W 122°56'2 1.6
2017-Feb-20 05:34N 46°05' W 122°54'3 3.2
2017-Feb-20 04:34N 46°02' W 122°52'0 0.0
2017-Feb-20 03:33N 46°02' W 122°52'0 0.0
2017-Feb-20 02:33N 46°02' W 122°52'0 0.0
2017-Feb-20 01:34N 46°02' W 122°52'0 0.0
2017-Feb-20 00:34N 46°02' W 122°52'0 0.0
2017-Feb-19 23:34N 46°02' W 122°52'0 0.0
2017-Feb-19 22:34N 46°02' W 122°52'0 0.0
2017-Feb-19 21:34N 46°02' W 122°52'0 0.0
2017-Feb-19 20:33N 46°02' W 122°52'0 0.2
2017-Feb-19 19:34N 46°02' W 122°52'0 0.2
2017-Feb-19 18:33N 46°02' W 122°52'0 0.0
2017-Feb-19 17:34N 46°02' W 122°52'0 0.0
2017-Feb-19 16:33N 46°02' W 122°52'2 1.5
2017-Feb-19 15:34N 46°03' W 122°53'5 4.6
2017-Feb-19 14:33N 46°06' W 122°58'1 0.9
2017-Feb-19 13:34N 46°07' W 122°59'3 2.5
2017-Feb-19 12:34N 46°05' W 122°56'0 0.0
2017-Feb-19 11:34N 46°05' W 122°56'0 0.0
2017-Feb-19 10:34N 46°05' W 122°56'0 0.0
2017-Feb-19 09:34N 46°05' W 122°56'3 2.7
2017-Feb-19 08:34N 46°04' W 122°53'0 0.1
2017-Feb-19 07:34N 46°04' W 122°53'0 0.0
2017-Feb-19 06:33N 46°04' W 122°53'0 0.0
2017-Feb-19 05:34N 46°04' W 122°53'0 0.0
2017-Feb-19 04:34N 46°04' W 122°53'0 0.0
2017-Feb-19 03:34N 46°04' W 122°53'0 0.0
2017-Feb-19 02:33N 46°04' W 122°53'0 0.0
2017-Feb-19 01:33N 46°04' W 122°53'0 0.0
2017-Feb-19 00:33N 46°04' W 122°53'0 0.1
2017-Feb-18 23:34N 46°03' W 122°53'2 1.9
2017-Feb-18 22:33N 46°02' W 122°52'0 0.4
2017-Feb-18 21:34N 46°01' W 122°52'1110.9
2017-Feb-18 20:33N 45°51' W 122°47'1111.1
2017-Feb-18 19:34N 45°40' W 122°46'2 1.6
2017-Feb-18 18:34N 45°39' W 122°45'0 0.0
2017-Feb-18 17:33N 45°39' W 122°45'0 0.0
2017-Feb-18 16:33N 45°39' W 122°45'0 0.0
2017-Feb-18 15:33N 45°39' W 122°45'0 0.0
2017-Feb-18 14:33N 45°39' W 122°45'0 0.0
2017-Feb-18 13:33N 45°39' W 122°45'0 0.0
2017-Feb-18 12:33N 45°39' W 122°45'0 0.0
2017-Feb-18 11:33N 45°39' W 122°45'0 0.0
2017-Feb-18 10:33N 45°39' W 122°45'0 0.0
2017-Feb-18 09:33N 45°39' W 122°45'0 0.0
2017-Feb-18 08:33N 45°39' W 122°45'0 0.0
2017-Feb-18 07:33N 45°39' W 122°45'0 0.0
2017-Feb-18 06:33N 45°39' W 122°45'0 0.0
2017-Feb-18 05:33N 45°39' W 122°45'2 1.6
2017-Feb-18 04:33N 45°38' W 122°42'2 1.9
2017-Feb-18 03:33N 45°39' W 122°45'3 2.6
2017-Feb-18 02:33N 45°38' W 122°42'2 1.5
2017-Feb-18 01:33N 45°38' W 122°44'0 0.0
2017-Feb-18 00:33N 45°38' W 122°44'0 0.0
2017-Feb-17 23:33N 45°38' W 122°44'0 0.0
2017-Feb-17 22:33N 45°38' W 122°44'1 0.6
2017-Feb-17 21:33N 45°38' W 122°43'2 1.6
2017-Feb-17 20:33N 45°39' W 122°45'0 0.0
2017-Feb-17 19:33N 45°39' W 122°45'0 0.0
2017-Feb-17 18:34N 45°39' W 122°45'0 0.0
2017-Feb-17 17:33N 45°39' W 122°45'0 0.0
2017-Feb-17 16:33N 45°39' W 122°45'0 0.0
2017-Feb-17 15:33N 45°39' W 122°45'0 0.0
2017-Feb-17 14:33N 45°39' W 122°45'0 0.3
2017-Feb-17 13:33N 45°39' W 122°45'0 0.0
2017-Feb-17 12:33N 45°39' W 122°45'0 0.0
2017-Feb-17 11:33N 45°39' W 122°45'0 0.0
2017-Feb-17 10:33N 45°39' W 122°45'0 0.0
2017-Feb-17 09:33N 45°39' W 122°45'0 0.1
2017-Feb-17 08:33N 45°39' W 122°45'1 1.3
2017-Feb-17 07:33N 45°38' W 122°43'0 0.1
2017-Feb-17 06:34N 45°38' W 122°43'0 0.0
2017-Feb-17 05:33N 45°38' W 122°43'3 3.0
2017-Feb-17 04:33N 45°38' W 122°47'2 2.4
2017-Feb-17 03:33N 45°36' W 122°46'4 4.4
2017-Feb-17 02:33N 45°40' W 122°46'9 9.2
2017-Feb-17 01:33N 45°49' W 122°48'9 8.9
2017-Feb-17 00:33N 45°58' W 122°49'9 8.9
2017-Feb-16 23:33N 46°06' W 122°56'0 0.4
2017-Feb-16 22:33N 46°06' W 122°56'0 0.0
2017-Feb-16 21:33N 46°06' W 122°56'0 0.1
2017-Feb-16 20:33N 46°06' W 122°56'0 0.0
2017-Feb-16 19:33N 46°06' W 122°56'0 0.0
2017-Feb-16 18:33N 46°06' W 122°56'4 4.2
2017-Feb-16 17:34N 46°03' W 122°53'1 0.9
2017-Feb-16 16:34N 46°02' W 122°53'0 0.0
2017-Feb-16 15:34N 46°02' W 122°53'0 0.0
2017-Feb-16 14:34N 46°02' W 122°53'0 0.0
2017-Feb-16 13:33N 46°02' W 122°53'0 0.0
2017-Feb-16 12:34N 46°02' W 122°53'0 0.0
2017-Feb-16 11:34N 46°02' W 122°53'0 0.0
2017-Feb-16 10:33N 46°02' W 122°53'0 0.0
2017-Feb-16 09:34N 46°02' W 122°53'0 0.0
2017-Feb-16 08:33N 46°02' W 122°53'0 0.0
2017-Feb-16 07:32N 46°02' W 122°53'0 0.0
2017-Feb-16 06:34N 46°02' W 122°53'0 0.0
2017-Feb-16 05:34N 46°02' W 122°53'0 0.0
2017-Feb-16 04:33N 46°02' W 122°53'0 0.0
2017-Feb-16 03:34N 46°02' W 122°53'0 0.0
2017-Feb-16 02:34N 46°02' W 122°53'0 0.0
2017-Feb-16 01:34N 46°02' W 122°53'0 0.0
2017-Feb-16 00:33N 46°02' W 122°53'0 0.0
2017-Feb-15 23:34N 46°02' W 122°53'0 0.0
2017-Feb-15 22:33N 46°02' W 122°53'0 0.0
2017-Feb-15 21:34N 46°02' W 122°53'0 0.0
2017-Feb-15 20:33N 46°02' W 122°53'0 0.0
2017-Feb-15 19:34N 46°02' W 122°53'0 0.0
2017-Feb-15 18:34N 46°02' W 122°53'0 0.0
2017-Feb-15 17:34N 46°02' W 122°53'0 0.0
2017-Feb-15 16:34N 46°02' W 122°53'0 0.0
2017-Feb-15 15:34N 46°02' W 122°53'0 0.0
2017-Feb-15 14:34N 46°02' W 122°53'0 0.3
2017-Feb-15 13:34N 46°02' W 122°52'0 0.0
2017-Feb-15 12:34N 46°02' W 122°52'0 0.2
2017-Feb-15 11:33N 46°02' W 122°53'0 0.4
2017-Feb-15 10:34N 46°01' W 122°52'7 7.3
2017-Feb-15 09:33N 45°55' W 122°49'1313.1
2017-Feb-15 08:34N 45°42' W 122°46'3 3.1
2017-Feb-15 07:33N 45°39' W 122°45'0 0.0
2017-Feb-15 06:34N 45°39' W 122°45'0 0.0
2017-Feb-15 05:33N 45°39' W 122°45'0 0.0
2017-Feb-15 04:33N 45°39' W 122°45'1 1.2
2017-Feb-15 03:34N 45°38' W 122°43'2 1.8
2017-Feb-15 02:34N 45°39' W 122°45'2 1.6
2017-Feb-15 01:33N 45°41' W 122°47'6 6.3
2017-Feb-15 00:33N 45°47' W 122°47'9 9.0
2017-Feb-14 23:33N 45°56' W 122°48'7 6.5
2017-Feb-14 22:34N 46°02' W 122°53'0 0.0
2017-Feb-14 21:33N 46°02' W 122°53'0 0.0
2017-Feb-14 20:34N 46°02' W 122°53'0 0.0
2017-Feb-14 19:34N 46°02' W 122°53'1 0.8
2017-Feb-14 18:34N 46°02' W 122°53'4 4.4
2017-Feb-14 17:34N 46°06' W 122°57'0 0.0
2017-Feb-14 16:33N 46°06' W 122°57'0 0.1
2017-Feb-14 15:34N 46°06' W 122°57'0 0.2
2017-Feb-14 14:34N 46°06' W 122°57'0 0.3
2017-Feb-14 13:34N 46°06' W 122°56'0 0.0
2017-Feb-14 12:33N 46°06' W 122°56'1 0.7
2017-Feb-14 11:34N 46°05' W 122°56'1212.1
2017-Feb-14 10:34N 45°55' W 122°49'1313.2
2017-Feb-14 09:34N 45°41' W 122°46'3 3.0
2017-Feb-14 08:33N 45°39' W 122°45'0 0.0
2017-Feb-14 07:33N 45°39' W 122°45'0 0.0
2017-Feb-14 06:33N 45°39' W 122°45'0 0.0
2017-Feb-14 05:33N 45°39' W 122°45'0 0.0
2017-Feb-14 04:33N 45°39' W 122°45'2 1.9
2017-Feb-14 03:34N 45°38' W 122°42'1 1.1
2017-Feb-14 02:33N 45°38' W 122°44'1 1.3
2017-Feb-14 01:34N 45°39' W 122°45'1 1.0
2017-Feb-14 00:34N 45°40' W 122°46'6 6.1
2017-Feb-13 23:34N 45°34' W 122°44'0 0.2
2017-Feb-13 22:33N 45°34' W 122°44'0 0.0
2017-Feb-13 21:33N 45°34' W 122°44'0 0.0
2017-Feb-13 20:34N 45°34' W 122°44'0 0.0
2017-Feb-13 19:34N 45°34' W 122°44'0 0.0
2017-Feb-13 18:34N 45°34' W 122°44'0 0.0
2017-Feb-13 17:33N 45°34' W 122°44'2 1.8
2017-Feb-13 16:33N 45°33' W 122°41'0 0.1
2017-Feb-13 15:34N 45°33' W 122°41'2 2.0
2017-Feb-13 14:34N 45°34' W 122°44'6 5.8
2017-Feb-13 13:34N 45°39' W 122°46'3 3.2
2017-Feb-13 12:33N 45°38' W 122°42'0 0.1
2017-Feb-13 11:33N 45°38' W 122°42'0 0.0
2017-Feb-13 10:34N 45°38' W 122°42'0 0.0
2017-Feb-13 09:33N 45°38' W 122°42'0 0.0
2017-Feb-13 08:34N 45°38' W 122°42'0 0.0
2017-Feb-13 07:34N 45°38' W 122°42'2 1.7
2017-Feb-13 06:33N 45°39' W 122°44'5 5.5
2017-Feb-13 05:34N 45°33' W 122°43'2 1.8
2017-Feb-13 04:33N 45°32' W 122°41'3 3.1
2017-Feb-13 03:33N 45°34' W 122°44'1 0.5
2017-Feb-13 02:34N 45°34' W 122°44'0 0.0
2017-Feb-13 01:34N 45°34' W 122°44'4 4.3
2017-Feb-13 00:34N 45°37' W 122°47'3 3.0
2017-Feb-12 23:33N 45°38' W 122°43'0 0.2
2017-Feb-12 22:34N 45°38' W 122°43'1 1.3
2017-Feb-12 21:34N 45°39' W 122°45'0 0.0
2017-Feb-12 20:34N 45°39' W 122°45'1 0.5
2017-Feb-12 19:34N 45°39' W 122°44'1 0.8
2017-Feb-12 18:34N 45°39' W 122°43'1 1.3
2017-Feb-12 17:34N 45°39' W 122°45'0 0.0
2017-Feb-12 16:33N 45°39' W 122°45'0 0.0
2017-Feb-12 15:33N 45°39' W 122°45'8 7.6
2017-Feb-12 14:34N 45°46' W 122°46'9 9.2
2017-Feb-12 13:33N 45°55' W 122°48'4 3.8
2017-Feb-12 12:33N 45°59' W 122°50'4 4.0
2017-Feb-12 11:33N 45°55' W 122°48'1313.4
2017-Feb-12 10:34N 45°42' W 122°46'2 1.7
2017-Feb-12 09:34N 45°40' W 122°46'2 1.6
2017-Feb-12 08:34N 45°39' W 122°45'0 0.0
2017-Feb-12 07:33N 45°39' W 122°45'1 0.7
2017-Feb-12 06:33N 45°39' W 122°46'1 1.1
2017-Feb-12 05:33N 45°39' W 122°44'0 0.3
2017-Feb-12 04:33N 45°39' W 122°45'0 0.0
2017-Feb-12 03:33N 45°39' W 122°45'2 2.2
2017-Feb-12 02:33N 45°38' W 122°42'2 1.8
2017-Feb-12 01:34N 45°39' W 122°44'1 1.0
2017-Feb-12 00:33N 45°39' W 122°45'1 1.3
2017-Feb-11 23:34N 45°38' W 122°44'1 0.9
2017-Feb-11 22:33N 45°39' W 122°45'0 0.0
2017-Feb-11 21:34N 45°39' W 122°45'0 0.0
2017-Feb-11 20:34N 45°39' W 122°45'0 0.0
2017-Feb-11 19:34N 45°39' W 122°45'1 0.5
2017-Feb-11 18:34N 45°39' W 122°46'0 0.2
2017-Feb-11 17:33N 45°39' W 122°45'0 0.0
2017-Feb-11 16:33N 45°39' W 122°45'0 0.1
2017-Feb-11 15:34N 45°39' W 122°46'3 2.8
2017-Feb-11 14:33N 45°36' W 122°47'0 0.2
2017-Feb-11 13:33N 45°36' W 122°47'3 3.0
2017-Feb-11 12:33N 45°39' W 122°45'0 0.3
2017-Feb-11 11:34N 45°39' W 122°45'0 0.0
2017-Feb-11 10:34N 45°39' W 122°45'3 3.3
2017-Feb-11 09:34N 45°36' W 122°47'2 1.5
2017-Feb-11 08:33N 45°35' W 122°45'1 0.7
2017-Feb-11 07:33N 45°34' W 122°44'2 2.2
2017-Feb-11 06:33N 45°36' W 122°46'4 3.6
2017-Feb-11 05:34N 45°39' W 122°46'0 0.0
2017-Feb-11 04:34N 45°39' W 122°46'0 0.0
2017-Feb-11 03:33N 45°39' W 122°46'0 0.0
2017-Feb-11 02:33N 45°39' W 122°46'0 0.0
2017-Feb-11 01:33N 45°39' W 122°46'0 0.0
2017-Feb-11 00:33N 45°39' W 122°46'0 0.0
2017-Feb-10 23:33N 45°39' W 122°46'0 0.0
2017-Feb-10 22:33N 45°39' W 122°46'0 0.0
2017-Feb-10 21:33N 45°39' W 122°46'0 0.0
2017-Feb-10 20:33N 45°39' W 122°46'0 0.0
2017-Feb-10 19:33N 45°39' W 122°46'0 0.0
2017-Feb-10 18:33N 45°39' W 122°46'0 0.0
2017-Feb-10 17:33N 45°39' W 122°46'2 2.2
2017-Feb-10 16:34N 45°37' W 122°47'4 4.0
2017-Feb-10 15:33N 45°34' W 122°44'3 2.6
2017-Feb-10 14:34N 45°36' W 122°47'3 3.0
2017-Feb-10 13:33N 45°39' W 122°45'0 0.0
2017-Feb-10 12:34N 45°39' W 122°45'0 0.0
2017-Feb-10 11:33N 45°39' W 122°45'0 0.0
2017-Feb-10 10:33N 45°39' W 122°45'0 0.0
2017-Feb-10 09:33N 45°39' W 122°45'0 0.0
2017-Feb-10 08:34N 45°39' W 122°45'  

Dump ship's entire track history